sensor_id;sensor_type;location;lat;lon;timestamp;P1;durP1;ratioP1;P2;durP2;ratioP2
13485;SDS011;6815;59.336;17.998;2023-05-10T00:00:26;10.53;;;5.80;;
13485;SDS011;6815;59.336;17.998;2023-05-10T00:02:53;8.27;;;5.27;;
13485;SDS011;6815;59.336;17.998;2023-05-10T00:05:18;8.10;;;5.23;;
13485;SDS011;6815;59.336;17.998;2023-05-10T00:07:44;8.20;;;5.30;;
13485;SDS011;6815;59.336;17.998;2023-05-10T00:10:10;7.17;;;4.97;;
13485;SDS011;6815;59.336;17.998;2023-05-10T00:12:37;9.67;;;5.80;;
13485;SDS011;6815;59.336;17.998;2023-05-10T00:15:02;7.07;;;5.20;;
13485;SDS011;6815;59.336;17.998;2023-05-10T00:17:28;11.07;;;5.90;;
13485;SDS011;6815;59.336;17.998;2023-05-10T00:19:54;11.17;;;5.73;;
13485;SDS011;6815;59.336;17.998;2023-05-10T00:22:20;6.67;;;5.10;;
13485;SDS011;6815;59.336;17.998;2023-05-10T00:24:47;8.50;;;5.33;;
13485;SDS011;6815;59.336;17.998;2023-05-10T00:27:13;8.60;;;5.10;;
13485;SDS011;6815;59.336;17.998;2023-05-10T00:29:38;8.80;;;6.10;;
13485;SDS011;6815;59.336;17.998;2023-05-10T00:32:03;9.37;;;5.87;;
13485;SDS011;6815;59.336;17.998;2023-05-10T00:34:30;8.23;;;5.80;;
13485;SDS011;6815;59.336;17.998;2023-05-10T00:36:57;7.97;;;5.57;;
13485;SDS011;6815;59.336;17.998;2023-05-10T00:39:23;8.53;;;5.57;;
13485;SDS011;6815;59.336;17.998;2023-05-10T00:41:51;8.93;;;5.33;;
13485;SDS011;6815;59.336;17.998;2023-05-10T00:44:16;8.60;;;5.97;;
13485;SDS011;6815;59.336;17.998;2023-05-10T00:46:43;8.23;;;5.50;;
13485;SDS011;6815;59.336;17.998;2023-05-10T00:49:10;9.93;;;5.87;;
13485;SDS011;6815;59.336;17.998;2023-05-10T00:51:36;8.53;;;5.27;;
13485;SDS011;6815;59.336;17.998;2023-05-10T00:54:02;11.27;;;5.63;;
13485;SDS011;6815;59.336;17.998;2023-05-10T00:56:28;8.93;;;5.70;;
13485;SDS011;6815;59.336;17.998;2023-05-10T00:58:54;7.33;;;5.67;;
13485;SDS011;6815;59.336;17.998;2023-05-10T01:01:20;8.37;;;5.63;;
13485;SDS011;6815;59.336;17.998;2023-05-10T01:03:46;10.43;;;5.43;;
13485;SDS011;6815;59.336;17.998;2023-05-10T01:06:12;10.13;;;6.53;;
13485;SDS011;6815;59.336;17.998;2023-05-10T01:08:38;8.33;;;5.60;;
13485;SDS011;6815;59.336;17.998;2023-05-10T01:11:04;9.87;;;5.67;;
13485;SDS011;6815;59.336;17.998;2023-05-10T01:13:37;8.30;;;5.53;;
13485;SDS011;6815;59.336;17.998;2023-05-10T01:16:06;7.83;;;5.23;;
13485;SDS011;6815;59.336;17.998;2023-05-10T01:18:39;7.20;;;5.77;;
13485;SDS011;6815;59.336;17.998;2023-05-10T01:35:13;7.77;;;5.63;;
13485;SDS011;6815;59.336;17.998;2023-05-10T01:41:02;10.03;;;6.20;;
13485;SDS011;6815;59.336;17.998;2023-05-10T01:43:37;9.37;;;6.20;;
13485;SDS011;6815;59.336;17.998;2023-05-10T01:46:24;12.83;;;6.07;;
13485;SDS011;6815;59.336;17.998;2023-05-10T01:48:57;7.70;;;5.87;;
13485;SDS011;6815;59.336;17.998;2023-05-10T01:51:25;8.97;;;5.93;;
13485;SDS011;6815;59.336;17.998;2023-05-10T01:53:54;9.87;;;5.93;;
13485;SDS011;6815;59.336;17.998;2023-05-10T01:56:30;11.80;;;6.10;;
13485;SDS011;6815;59.336;17.998;2023-05-10T01:58:58;9.47;;;6.43;;
13485;SDS011;6815;59.336;17.998;2023-05-10T02:01:28;8.33;;;6.10;;
13485;SDS011;6815;59.336;17.998;2023-05-10T02:03:54;8.73;;;5.67;;
13485;SDS011;6815;59.336;17.998;2023-05-10T02:06:22;11.40;;;6.10;;
13485;SDS011;6815;59.336;17.998;2023-05-10T02:08:50;7.80;;;6.03;;
13485;SDS011;6815;59.336;17.998;2023-05-10T02:11:18;8.03;;;5.70;;
13485;SDS011;6815;59.336;17.998;2023-05-10T02:13:45;10.83;;;5.93;;
13485;SDS011;6815;59.336;17.998;2023-05-10T02:16:14;9.20;;;6.20;;
13485;SDS011;6815;59.336;17.998;2023-05-10T02:18:41;9.87;;;6.23;;
13485;SDS011;6815;59.336;17.998;2023-05-10T02:21:08;9.07;;;6.13;;
13485;SDS011;6815;59.336;17.998;2023-05-10T02:23:35;10.03;;;6.20;;
13485;SDS011;6815;59.336;17.998;2023-05-10T02:26:02;8.93;;;6.33;;
13485;SDS011;6815;59.336;17.998;2023-05-10T02:28:30;8.63;;;6.03;;
13485;SDS011;6815;59.336;17.998;2023-05-10T02:30:57;9.00;;;6.60;;
13485;SDS011;6815;59.336;17.998;2023-05-10T02:33:23;8.97;;;5.67;;
13485;SDS011;6815;59.336;17.998;2023-05-10T02:35:50;7.50;;;5.73;;
13485;SDS011;6815;59.336;17.998;2023-05-10T02:38:18;10.60;;;6.30;;
13485;SDS011;6815;59.336;17.998;2023-05-10T02:40:46;8.63;;;5.90;;
13485;SDS011;6815;59.336;17.998;2023-05-10T02:43:14;11.77;;;6.23;;
13485;SDS011;6815;59.336;17.998;2023-05-10T02:45:42;11.83;;;6.47;;
13485;SDS011;6815;59.336;17.998;2023-05-10T02:48:11;9.73;;;6.60;;
13485;SDS011;6815;59.336;17.998;2023-05-10T02:50:37;9.43;;;6.00;;
13485;SDS011;6815;59.336;17.998;2023-05-10T02:53:09;13.63;;;5.83;;
13485;SDS011;6815;59.336;17.998;2023-05-10T02:55:38;10.10;;;6.30;;
13485;SDS011;6815;59.336;17.998;2023-05-10T02:58:07;8.53;;;6.57;;
13485;SDS011;6815;59.336;17.998;2023-05-10T03:00:33;11.73;;;6.63;;
13485;SDS011;6815;59.336;17.998;2023-05-10T03:02:58;14.07;;;5.83;;
13485;SDS011;6815;59.336;17.998;2023-05-10T03:05:24;9.60;;;6.27;;
13485;SDS011;6815;59.336;17.998;2023-05-10T03:07:50;10.17;;;6.20;;
13485;SDS011;6815;59.336;17.998;2023-05-10T03:10:16;11.03;;;6.60;;
13485;SDS011;6815;59.336;17.998;2023-05-10T03:15:37;17.10;;;6.67;;
13485;SDS011;6815;59.336;17.998;2023-05-10T03:23:20;17.47;;;6.67;;
13485;SDS011;6815;59.336;17.998;2023-05-10T03:25:51;12.87;;;6.63;;
13485;SDS011;6815;59.336;17.998;2023-05-10T03:28:17;13.77;;;6.87;;
13485;SDS011;6815;59.336;17.998;2023-05-10T03:30:43;14.47;;;6.80;;
13485;SDS011;6815;59.336;17.998;2023-05-10T03:33:10;13.30;;;6.23;;
13485;SDS011;6815;59.336;17.998;2023-05-10T03:35:37;13.63;;;6.77;;
13485;SDS011;6815;59.336;17.998;2023-05-10T03:38:03;12.27;;;6.57;;
13485;SDS011;6815;59.336;17.998;2023-05-10T03:40:28;12.27;;;6.53;;
13485;SDS011;6815;59.336;17.998;2023-05-10T03:42:56;14.47;;;6.77;;
13485;SDS011;6815;59.336;17.998;2023-05-10T03:45:21;9.53;;;6.73;;
13485;SDS011;6815;59.336;17.998;2023-05-10T03:47:50;8.27;;;6.03;;
13485;SDS011;6815;59.336;17.998;2023-05-10T03:50:15;13.27;;;6.67;;
13485;SDS011;6815;59.336;17.998;2023-05-10T03:52:41;8.17;;;6.20;;
13485;SDS011;6815;59.336;17.998;2023-05-10T03:55:07;11.13;;;6.60;;
13485;SDS011;6815;59.336;17.998;2023-05-10T03:57:33;10.40;;;6.07;;
13485;SDS011;6815;59.336;17.998;2023-05-10T03:59:59;12.70;;;6.40;;
13485;SDS011;6815;59.336;17.998;2023-05-10T04:02:24;10.57;;;6.57;;
13485;SDS011;6815;59.336;17.998;2023-05-10T04:04:50;8.30;;;5.90;;
13485;SDS011;6815;59.336;17.998;2023-05-10T04:07:15;8.93;;;6.47;;
13485;SDS011;6815;59.336;17.998;2023-05-10T04:09:41;13.77;;;5.70;;
13485;SDS011;6815;59.336;17.998;2023-05-10T04:12:07;10.87;;;6.43;;
13485;SDS011;6815;59.336;17.998;2023-05-10T04:14:32;10.87;;;6.53;;
13485;SDS011;6815;59.336;17.998;2023-05-10T04:16:58;10.67;;;6.20;;
13485;SDS011;6815;59.336;17.998;2023-05-10T04:19:23;11.30;;;6.13;;
13485;SDS011;6815;59.336;17.998;2023-05-10T04:21:49;9.57;;;6.20;;
13485;SDS011;6815;59.336;17.998;2023-05-10T04:24:14;12.60;;;6.40;;
13485;SDS011;6815;59.336;17.998;2023-05-10T04:26:40;9.40;;;5.80;;
13485;SDS011;6815;59.336;17.998;2023-05-10T04:29:07;12.03;;;5.87;;
13485;SDS011;6815;59.336;17.998;2023-05-10T04:31:34;10.63;;;5.70;;
13485;SDS011;6815;59.336;17.998;2023-05-10T04:34:01;9.83;;;5.53;;
13485;SDS011;6815;59.336;17.998;2023-05-10T04:36:26;11.73;;;5.60;;
13485;SDS011;6815;59.336;17.998;2023-05-10T04:38:52;17.23;;;6.00;;
13485;SDS011;6815;59.336;17.998;2023-05-10T04:41:18;11.43;;;5.57;;
13485;SDS011;6815;59.336;17.998;2023-05-10T04:43:43;10.27;;;5.73;;
13485;SDS011;6815;59.336;17.998;2023-05-10T04:46:09;9.87;;;5.67;;
13485;SDS011;6815;59.336;17.998;2023-05-10T04:48:34;8.80;;;5.63;;
13485;SDS011;6815;59.336;17.998;2023-05-10T04:51:01;13.20;;;5.73;;
13485;SDS011;6815;59.336;17.998;2023-05-10T04:53:28;8.90;;;5.33;;
13485;SDS011;6815;59.336;17.998;2023-05-10T04:55:54;5.77;;;4.57;;
13485;SDS011;6815;59.336;17.998;2023-05-10T04:58:19;8.73;;;5.13;;
13485;SDS011;6815;59.336;17.998;2023-05-10T05:00:45;7.77;;;4.73;;
13485;SDS011;6815;59.336;17.998;2023-05-10T05:03:12;10.30;;;4.40;;
13485;SDS011;6815;59.336;17.998;2023-05-10T05:05:38;9.20;;;4.50;;
13485;SDS011;6815;59.336;17.998;2023-05-10T05:08:04;10.43;;;4.87;;
13485;SDS011;6815;59.336;17.998;2023-05-10T05:10:31;9.53;;;4.80;;
13485;SDS011;6815;59.336;17.998;2023-05-10T05:12:56;6.50;;;4.30;;
13485;SDS011;6815;59.336;17.998;2023-05-10T05:15:22;11.50;;;4.73;;
13485;SDS011;6815;59.336;17.998;2023-05-10T05:17:47;10.47;;;4.40;;
13485;SDS011;6815;59.336;17.998;2023-05-10T05:20:14;7.50;;;4.17;;
13485;SDS011;6815;59.336;17.998;2023-05-10T05:22:41;7.80;;;4.40;;
13485;SDS011;6815;59.336;17.998;2023-05-10T05:25:06;8.27;;;4.07;;
13485;SDS011;6815;59.336;17.998;2023-05-10T05:27:32;6.90;;;4.50;;
13485;SDS011;6815;59.336;17.998;2023-05-10T05:29:58;9.00;;;4.20;;
13485;SDS011;6815;59.336;17.998;2023-05-10T05:32:24;8.40;;;4.23;;
13485;SDS011;6815;59.336;17.998;2023-05-10T05:34:51;8.63;;;4.05;;
13485;SDS011;6815;59.336;17.998;2023-05-10T05:37:17;6.20;;;4.00;;
13485;SDS011;6815;59.336;17.998;2023-05-10T05:39:45;7.40;;;3.65;;
13485;SDS011;6815;59.336;17.998;2023-05-10T05:42:11;7.03;;;4.18;;
13485;SDS011;6815;59.336;17.998;2023-05-10T05:44:37;9.40;;;4.15;;
13485;SDS011;6815;59.336;17.998;2023-05-10T05:47:03;6.57;;;3.80;;
13485;SDS011;6815;59.336;17.998;2023-05-10T05:49:29;6.28;;;3.83;;
13485;SDS011;6815;59.336;17.998;2023-05-10T05:51:58;9.65;;;4.38;;
13485;SDS011;6815;59.336;17.998;2023-05-10T05:54:29;10.45;;;4.57;;
13485;SDS011;6815;59.336;17.998;2023-05-10T05:56:56;9.75;;;3.97;;
13485;SDS011;6815;59.336;17.998;2023-05-10T05:59:23;5.68;;;3.67;;
13485;SDS011;6815;59.336;17.998;2023-05-10T06:01:49;7.07;;;3.40;;
13485;SDS011;6815;59.336;17.998;2023-05-10T06:04:16;7.65;;;4.03;;
13485;SDS011;6815;59.336;17.998;2023-05-10T06:06:42;9.60;;;3.78;;
13485;SDS011;6815;59.336;17.998;2023-05-10T06:09:07;7.00;;;3.50;;
13485;SDS011;6815;59.336;17.998;2023-05-10T06:11:33;5.22;;;3.38;;
13485;SDS011;6815;59.336;17.998;2023-05-10T06:13:59;6.68;;;3.63;;
13485;SDS011;6815;59.336;17.998;2023-05-10T06:16:27;6.45;;;3.90;;
13485;SDS011;6815;59.336;17.998;2023-05-10T06:18:53;6.80;;;3.75;;
13485;SDS011;6815;59.336;17.998;2023-05-10T06:21:18;6.60;;;3.60;;
13485;SDS011;6815;59.336;17.998;2023-05-10T06:23:44;5.30;;;3.47;;
13485;SDS011;6815;59.336;17.998;2023-05-10T06:26:11;7.10;;;4.13;;
13485;SDS011;6815;59.336;17.998;2023-05-10T06:28:39;9.88;;;3.63;;
13485;SDS011;6815;59.336;17.998;2023-05-10T06:31:04;7.80;;;3.58;;
13485;SDS011;6815;59.336;17.998;2023-05-10T06:33:31;7.97;;;3.80;;
13485;SDS011;6815;59.336;17.998;2023-05-10T06:36:00;7.07;;;4.10;;
13485;SDS011;6815;59.336;17.998;2023-05-10T06:38:25;8.32;;;3.70;;
13485;SDS011;6815;59.336;17.998;2023-05-10T06:40:51;9.75;;;3.50;;
13485;SDS011;6815;59.336;17.998;2023-05-10T06:43:17;11.15;;;3.78;;
13485;SDS011;6815;59.336;17.998;2023-05-10T06:45:45;6.72;;;3.20;;
13485;SDS011;6815;59.336;17.998;2023-05-10T06:48:11;10.70;;;3.70;;
13485;SDS011;6815;59.336;17.998;2023-05-10T06:50:36;6.38;;;3.60;;
13485;SDS011;6815;59.336;17.998;2023-05-10T06:53:03;5.85;;;3.72;;
13485;SDS011;6815;59.336;17.998;2023-05-10T06:55:28;5.47;;;3.40;;
13485;SDS011;6815;59.336;17.998;2023-05-10T06:57:54;8.60;;;3.33;;
13485;SDS011;6815;59.336;17.998;2023-05-10T07:00:19;7.50;;;3.42;;
13485;SDS011;6815;59.336;17.998;2023-05-10T07:02:45;8.02;;;3.20;;
13485;SDS011;6815;59.336;17.998;2023-05-10T07:05:11;9.43;;;4.00;;
13485;SDS011;6815;59.336;17.998;2023-05-10T07:07:37;6.18;;;3.67;;
13485;SDS011;6815;59.336;17.998;2023-05-10T07:10:03;6.65;;;3.20;;
13485;SDS011;6815;59.336;17.998;2023-05-10T07:12:29;5.63;;;3.50;;
13485;SDS011;6815;59.336;17.998;2023-05-10T07:14:55;5.88;;;3.20;;
13485;SDS011;6815;59.336;17.998;2023-05-10T07:17:20;9.40;;;3.38;;
13485;SDS011;6815;59.336;17.998;2023-05-10T07:19:46;9.00;;;4.00;;
13485;SDS011;6815;59.336;17.998;2023-05-10T07:22:11;5.97;;;3.58;;
13485;SDS011;6815;59.336;17.998;2023-05-10T07:24:37;7.00;;;3.72;;
13485;SDS011;6815;59.336;17.998;2023-05-10T07:27:03;7.85;;;3.25;;
13485;SDS011;6815;59.336;17.998;2023-05-10T07:29:29;9.68;;;3.85;;
13485;SDS011;6815;59.336;17.998;2023-05-10T07:31:54;6.30;;;2.95;;
13485;SDS011;6815;59.336;17.998;2023-05-10T07:34:20;7.70;;;3.20;;
13485;SDS011;6815;59.336;17.998;2023-05-10T07:36:45;5.82;;;3.40;;
13485;SDS011;6815;59.336;17.998;2023-05-10T07:39:11;6.30;;;3.50;;
13485;SDS011;6815;59.336;17.998;2023-05-10T07:41:37;6.00;;;3.42;;
13485;SDS011;6815;59.336;17.998;2023-05-10T07:44:03;6.32;;;3.22;;
13485;SDS011;6815;59.336;17.998;2023-05-10T07:46:29;7.57;;;3.47;;
13485;SDS011;6815;59.336;17.998;2023-05-10T07:48:55;6.45;;;3.03;;
13485;SDS011;6815;59.336;17.998;2023-05-10T07:51:20;8.65;;;3.92;;
13485;SDS011;6815;59.336;17.998;2023-05-10T07:53:46;6.30;;;2.70;;
13485;SDS011;6815;59.336;17.998;2023-05-10T07:56:28;6.63;;;3.30;;
13485;SDS011;6815;59.336;17.998;2023-05-10T07:58:55;6.80;;;3.63;;
13485;SDS011;6815;59.336;17.998;2023-05-10T08:01:21;8.90;;;3.70;;
13485;SDS011;6815;59.336;17.998;2023-05-10T08:03:47;5.35;;;3.33;;
13485;SDS011;6815;59.336;17.998;2023-05-10T08:06:13;6.65;;;3.22;;
13485;SDS011;6815;59.336;17.998;2023-05-10T08:08:43;5.20;;;3.13;;
13485;SDS011;6815;59.336;17.998;2023-05-10T08:11:10;4.60;;;3.05;;
13485;SDS011;6815;59.336;17.998;2023-05-10T08:13:36;6.28;;;3.20;;
13485;SDS011;6815;59.336;17.998;2023-05-10T08:16:02;9.25;;;3.70;;
13485;SDS011;6815;59.336;17.998;2023-05-10T08:18:28;5.90;;;3.45;;
13485;SDS011;6815;59.336;17.998;2023-05-10T08:20:53;5.32;;;3.22;;
13485;SDS011;6815;59.336;17.998;2023-05-10T08:23:19;7.40;;;3.60;;
13485;SDS011;6815;59.336;17.998;2023-05-10T08:25:44;5.85;;;3.15;;
13485;SDS011;6815;59.336;17.998;2023-05-10T08:28:10;4.38;;;3.42;;
13485;SDS011;6815;59.336;17.998;2023-05-10T08:30:35;8.00;;;3.50;;
13485;SDS011;6815;59.336;17.998;2023-05-10T08:33:00;3.83;;;3.05;;
13485;SDS011;6815;59.336;17.998;2023-05-10T08:35:26;4.00;;;3.03;;
13485;SDS011;6815;59.336;17.998;2023-05-10T08:37:51;5.45;;;3.45;;
13485;SDS011;6815;59.336;17.998;2023-05-10T08:40:18;5.22;;;3.33;;
13485;SDS011;6815;59.336;17.998;2023-05-10T08:42:48;4.80;;;3.20;;
13485;SDS011;6815;59.336;17.998;2023-05-10T08:45:21;6.63;;;3.75;;
13485;SDS011;6815;59.336;17.998;2023-05-10T08:47:48;6.72;;;3.35;;
13485;SDS011;6815;59.336;17.998;2023-05-10T08:50:15;6.45;;;3.28;;
13485;SDS011;6815;59.336;17.998;2023-05-10T08:52:44;4.88;;;3.22;;
13485;SDS011;6815;59.336;17.998;2023-05-10T08:55:13;6.30;;;3.38;;
13485;SDS011;6815;59.336;17.998;2023-05-10T08:57:39;5.35;;;3.40;;
13485;SDS011;6815;59.336;17.998;2023-05-10T09:00:05;6.22;;;3.30;;
13485;SDS011;6815;59.336;17.998;2023-05-10T09:02:33;6.78;;;3.47;;
13485;SDS011;6815;59.336;17.998;2023-05-10T09:05:02;4.22;;;3.20;;
13485;SDS011;6815;59.336;17.998;2023-05-10T09:07:29;9.27;;;3.53;;
13485;SDS011;6815;59.336;17.998;2023-05-10T09:09:55;4.65;;;3.30;;
13485;SDS011;6815;59.336;17.998;2023-05-10T09:12:22;7.93;;;3.40;;
13485;SDS011;6815;59.336;17.998;2023-05-10T09:14:48;8.50;;;3.72;;
13485;SDS011;6815;59.336;17.998;2023-05-10T09:17:17;6.65;;;3.42;;
13485;SDS011;6815;59.336;17.998;2023-05-10T09:19:44;5.35;;;3.25;;
13485;SDS011;6815;59.336;17.998;2023-05-10T09:22:10;5.20;;;2.83;;
13485;SDS011;6815;59.336;17.998;2023-05-10T09:24:36;6.45;;;3.00;;
13485;SDS011;6815;59.336;17.998;2023-05-10T09:27:07;7.45;;;2.92;;
13485;SDS011;6815;59.336;17.998;2023-05-10T09:29:40;8.43;;;3.30;;
13485;SDS011;6815;59.336;17.998;2023-05-10T09:32:07;5.60;;;3.35;;
13485;SDS011;6815;59.336;17.998;2023-05-10T09:34:32;7.57;;;3.30;;
13485;SDS011;6815;59.336;17.998;2023-05-10T09:37:00;4.95;;;3.13;;
13485;SDS011;6815;59.336;17.998;2023-05-10T09:39:36;9.48;;;3.50;;
13485;SDS011;6815;59.336;17.998;2023-05-10T09:42:05;7.63;;;3.30;;
13485;SDS011;6815;59.336;17.998;2023-05-10T09:44:32;5.50;;;3.60;;
13485;SDS011;6815;59.336;17.998;2023-05-10T09:46:58;5.40;;;3.38;;
13485;SDS011;6815;59.336;17.998;2023-05-10T09:49:24;7.22;;;3.63;;
13485;SDS011;6815;59.336;17.998;2023-05-10T09:54:26;6.40;;;3.70;;
13485;SDS011;6815;59.336;17.998;2023-05-10T09:56:52;4.80;;;3.08;;
13485;SDS011;6815;59.336;17.998;2023-05-10T09:59:17;9.10;;;3.63;;
13485;SDS011;6815;59.336;17.998;2023-05-10T10:01:44;7.93;;;3.50;;
13485;SDS011;6815;59.336;17.998;2023-05-10T10:04:15;5.78;;;3.67;;
13485;SDS011;6815;59.336;17.998;2023-05-10T10:06:41;8.23;;;3.67;;
13485;SDS011;6815;59.336;17.998;2023-05-10T10:09:07;8.90;;;3.83;;
13485;SDS011;6815;59.336;17.998;2023-05-10T10:11:37;5.72;;;3.30;;
13485;SDS011;6815;59.336;17.998;2023-05-10T10:14:03;6.85;;;3.38;;
13485;SDS011;6815;59.336;17.998;2023-05-10T10:16:31;5.78;;;3.65;;
13485;SDS011;6815;59.336;17.998;2023-05-10T10:18:57;6.38;;;4.00;;
13485;SDS011;6815;59.336;17.998;2023-05-10T10:21:24;6.78;;;3.50;;
13485;SDS011;6815;59.336;17.998;2023-05-10T10:23:50;6.28;;;3.22;;
13485;SDS011;6815;59.336;17.998;2023-05-10T10:26:17;8.07;;;3.40;;
13485;SDS011;6815;59.336;17.998;2023-05-10T10:31:50;5.07;;;3.10;;
13485;SDS011;6815;59.336;17.998;2023-05-10T10:34:27;5.10;;;3.25;;
13485;SDS011;6815;59.336;17.998;2023-05-10T10:36:54;7.28;;;3.50;;
13485;SDS011;6815;59.336;17.998;2023-05-10T10:39:21;5.22;;;3.28;;
13485;SDS011;6815;59.336;17.998;2023-05-10T10:47:01;5.30;;;3.47;;
13485;SDS011;6815;59.336;17.998;2023-05-10T10:49:31;4.80;;;3.20;;
13485;SDS011;6815;59.336;17.998;2023-05-10T10:55:18;6.68;;;3.22;;
13485;SDS011;6815;59.336;17.998;2023-05-10T10:57:48;7.00;;;3.22;;
13485;SDS011;6815;59.336;17.998;2023-05-10T11:00:26;8.43;;;3.50;;
13485;SDS011;6815;59.336;17.998;2023-05-10T11:03:00;9.13;;;3.65;;
13485;SDS011;6815;59.336;17.998;2023-05-10T11:08:16;9.10;;;3.08;;
13485;SDS011;6815;59.336;17.998;2023-05-10T11:13:32;6.75;;;3.53;;
13485;SDS011;6815;59.336;17.998;2023-05-10T11:16:17;8.13;;;3.45;;
13485;SDS011;6815;59.336;17.998;2023-05-10T11:19:01;9.43;;;3.88;;
13485;SDS011;6815;59.336;17.998;2023-05-10T11:21:29;6.55;;;3.38;;
13485;SDS011;6815;59.336;17.998;2023-05-10T11:23:57;6.97;;;3.47;;
13485;SDS011;6815;59.336;17.998;2023-05-10T11:26:24;8.65;;;3.28;;
13485;SDS011;6815;59.336;17.998;2023-05-10T11:28:51;7.53;;;3.20;;
13485;SDS011;6815;59.336;17.998;2023-05-10T11:31:23;5.65;;;3.25;;
13485;SDS011;6815;59.336;17.998;2023-05-10T11:33:52;6.68;;;3.00;;
13485;SDS011;6815;59.336;17.998;2023-05-10T11:36:20;9.13;;;3.38;;
13485;SDS011;6815;59.336;17.998;2023-05-10T11:38:48;6.13;;;3.70;;
13485;SDS011;6815;59.336;17.998;2023-05-10T11:41:15;6.60;;;3.35;;
13485;SDS011;6815;59.336;17.998;2023-05-10T11:43:42;8.82;;;3.42;;
13485;SDS011;6815;59.336;17.998;2023-05-10T11:46:09;6.57;;;3.40;;
13485;SDS011;6815;59.336;17.998;2023-05-10T11:48:37;6.22;;;3.50;;
13485;SDS011;6815;59.336;17.998;2023-05-10T11:51:04;14.20;;;4.00;;
13485;SDS011;6815;59.336;17.998;2023-05-10T11:53:31;7.25;;;3.70;;
13485;SDS011;6815;59.336;17.998;2023-05-10T11:56:02;7.82;;;3.33;;
13485;SDS011;6815;59.336;17.998;2023-05-10T11:58:33;7.07;;;3.75;;
13485;SDS011;6815;59.336;17.998;2023-05-10T12:01:01;6.20;;;3.45;;
13485;SDS011;6815;59.336;17.998;2023-05-10T12:03:28;9.40;;;3.50;;
13485;SDS011;6815;59.336;17.998;2023-05-10T12:05:55;6.88;;;3.35;;
13485;SDS011;6815;59.336;17.998;2023-05-10T12:08:25;6.43;;;3.50;;
13485;SDS011;6815;59.336;17.998;2023-05-10T12:10:51;9.15;;;3.85;;
13485;SDS011;6815;59.336;17.998;2023-05-10T12:13:18;5.85;;;3.33;;
13485;SDS011;6815;59.336;17.998;2023-05-10T12:15:45;9.18;;;3.53;;
13485;SDS011;6815;59.336;17.998;2023-05-10T12:18:11;7.47;;;3.47;;
13485;SDS011;6815;59.336;17.998;2023-05-10T12:20:38;6.88;;;3.10;;
13485;SDS011;6815;59.336;17.998;2023-05-10T12:23:04;4.55;;;3.28;;
13485;SDS011;6815;59.336;17.998;2023-05-10T12:25:34;7.75;;;3.65;;
13485;SDS011;6815;59.336;17.998;2023-05-10T12:28:03;10.13;;;3.40;;
13485;SDS011;6815;59.336;17.998;2023-05-10T12:30:31;7.80;;;3.05;;
13485;SDS011;6815;59.336;17.998;2023-05-10T12:35:32;5.30;;;3.20;;
13485;SDS011;6815;59.336;17.998;2023-05-10T12:37:58;5.57;;;3.10;;
13485;SDS011;6815;59.336;17.998;2023-05-10T12:40:24;15.50;;;3.70;;
13485;SDS011;6815;59.336;17.998;2023-05-10T12:42:50;6.05;;;3.40;;
13485;SDS011;6815;59.336;17.998;2023-05-10T12:45:16;6.75;;;3.28;;
13485;SDS011;6815;59.336;17.998;2023-05-10T12:47:42;5.63;;;3.20;;
13485;SDS011;6815;59.336;17.998;2023-05-10T12:50:08;6.25;;;3.55;;
13485;SDS011;6815;59.336;17.998;2023-05-10T12:52:34;5.00;;;3.10;;
13485;SDS011;6815;59.336;17.998;2023-05-10T12:54:59;4.30;;;2.72;;
13485;SDS011;6815;59.336;17.998;2023-05-10T12:57:25;6.15;;;3.33;;
13485;SDS011;6815;59.336;17.998;2023-05-10T12:59:52;11.90;;;3.40;;
13485;SDS011;6815;59.336;17.998;2023-05-10T13:02:18;6.10;;;3.28;;
13485;SDS011;6815;59.336;17.998;2023-05-10T13:04:45;6.47;;;3.50;;
13485;SDS011;6815;59.336;17.998;2023-05-10T13:07:11;5.30;;;2.95;;
13485;SDS011;6815;59.336;17.998;2023-05-10T13:09:37;5.47;;;3.10;;
13485;SDS011;6815;59.336;17.998;2023-05-10T13:12:02;7.63;;;3.42;;
13485;SDS011;6815;59.336;17.998;2023-05-10T13:14:30;7.72;;;3.10;;
13485;SDS011;6815;59.336;17.998;2023-05-10T13:16:57;4.05;;;3.05;;
13485;SDS011;6815;59.336;17.998;2023-05-10T13:19:23;7.05;;;3.35;;
13485;SDS011;6815;59.336;17.998;2023-05-10T13:21:48;4.70;;;3.05;;
13485;SDS011;6815;59.336;17.998;2023-05-10T13:24:14;6.47;;;3.00;;
13485;SDS011;6815;59.336;17.998;2023-05-10T13:26:42;5.05;;;2.83;;
13485;SDS011;6815;59.336;17.998;2023-05-10T13:29:08;8.50;;;3.00;;
13485;SDS011;6815;59.336;17.998;2023-05-10T13:31:34;9.57;;;3.35;;
13485;SDS011;6815;59.336;17.998;2023-05-10T13:34:00;11.40;;;3.15;;
13485;SDS011;6815;59.336;17.998;2023-05-10T13:36:27;7.03;;;3.15;;
13485;SDS011;6815;59.336;17.998;2023-05-10T13:38:53;4.68;;;2.90;;
13485;SDS011;6815;59.336;17.998;2023-05-10T13:41:18;5.82;;;2.75;;
13485;SDS011;6815;59.336;17.998;2023-05-10T13:43:44;5.30;;;2.85;;
13485;SDS011;6815;59.336;17.998;2023-05-10T13:46:09;6.65;;;2.92;;
13485;SDS011;6815;59.336;17.998;2023-05-10T13:48:35;6.55;;;2.80;;
13485;SDS011;6815;59.336;17.998;2023-05-10T13:51:03;5.65;;;3.03;;
13485;SDS011;6815;59.336;17.998;2023-05-10T13:53:29;5.80;;;2.80;;
13485;SDS011;6815;59.336;17.998;2023-05-10T13:55:54;4.78;;;2.97;;
13485;SDS011;6815;59.336;17.998;2023-05-10T13:58:20;6.75;;;2.80;;
13485;SDS011;6815;59.336;17.998;2023-05-10T14:00:45;3.97;;;2.63;;
13485;SDS011;6815;59.336;17.998;2023-05-10T14:03:11;5.18;;;2.90;;
13485;SDS011;6815;59.336;17.998;2023-05-10T14:05:36;6.10;;;2.63;;
13485;SDS011;6815;59.336;17.998;2023-05-10T14:08:02;5.57;;;3.00;;
13485;SDS011;6815;59.336;17.998;2023-05-10T14:10:28;5.30;;;2.80;;
13485;SDS011;6815;59.336;17.998;2023-05-10T14:12:55;5.30;;;2.90;;
13485;SDS011;6815;59.336;17.998;2023-05-10T14:15:20;3.78;;;2.72;;
13485;SDS011;6815;59.336;17.998;2023-05-10T14:17:47;4.03;;;2.63;;
13485;SDS011;6815;59.336;17.998;2023-05-10T14:20:12;4.20;;;2.80;;
13485;SDS011;6815;59.336;17.998;2023-05-10T14:22:38;6.70;;;3.00;;
13485;SDS011;6815;59.336;17.998;2023-05-10T14:25:03;5.88;;;2.53;;
13485;SDS011;6815;59.336;17.998;2023-05-10T14:27:29;4.82;;;2.53;;
13485;SDS011;6815;59.336;17.998;2023-05-10T14:29:55;3.47;;;2.75;;
13485;SDS011;6815;59.336;17.998;2023-05-10T14:32:20;4.82;;;2.85;;
13485;SDS011;6815;59.336;17.998;2023-05-10T14:34:46;4.82;;;2.50;;
13485;SDS011;6815;59.336;17.998;2023-05-10T14:37:13;3.75;;;2.50;;
13485;SDS011;6815;59.336;17.998;2023-05-10T14:39:39;4.38;;;2.60;;
13485;SDS011;6815;59.336;17.998;2023-05-10T14:42:04;4.70;;;2.78;;
13485;SDS011;6815;59.336;17.998;2023-05-10T14:44:30;4.75;;;2.60;;
13485;SDS011;6815;59.336;17.998;2023-05-10T14:46:56;7.05;;;2.50;;
13485;SDS011;6815;59.336;17.998;2023-05-10T14:49:23;5.28;;;2.45;;
13485;SDS011;6815;59.336;17.998;2023-05-10T14:51:50;3.90;;;2.65;;
13485;SDS011;6815;59.336;17.998;2023-05-10T14:54:17;5.03;;;2.80;;
13485;SDS011;6815;59.336;17.998;2023-05-10T14:56:42;3.40;;;2.25;;
13485;SDS011;6815;59.336;17.998;2023-05-10T14:59:08;11.50;;;2.50;;
13485;SDS011;6815;59.336;17.998;2023-05-10T15:01:33;6.32;;;2.53;;
13485;SDS011;6815;59.336;17.998;2023-05-10T15:04:02;4.15;;;2.38;;
13485;SDS011;6815;59.336;17.998;2023-05-10T15:06:32;6.47;;;2.85;;
13485;SDS011;6815;59.336;17.998;2023-05-10T15:08:59;4.78;;;2.38;;
13485;SDS011;6815;59.336;17.998;2023-05-10T15:11:26;4.95;;;2.60;;
13485;SDS011;6815;59.336;17.998;2023-05-10T15:13:52;2.78;;;2.20;;
13485;SDS011;6815;59.336;17.998;2023-05-10T15:16:18;3.33;;;2.45;;
13485;SDS011;6815;59.336;17.998;2023-05-10T15:18:45;5.00;;;2.30;;
13485;SDS011;6815;59.336;17.998;2023-05-10T15:21:11;4.15;;;2.70;;
13485;SDS011;6815;59.336;17.998;2023-05-10T15:23:36;6.65;;;2.50;;
13485;SDS011;6815;59.336;17.998;2023-05-10T15:26:04;5.20;;;2.70;;
13485;SDS011;6815;59.336;17.998;2023-05-10T15:28:30;3.88;;;2.10;;
13485;SDS011;6815;59.336;17.998;2023-05-10T15:30:57;6.28;;;2.58;;